createdAt,value
2023-02-19T00:01:36.194Z,9.61
2023-02-19T00:04:19.289Z,9.60
2023-02-19T00:06:47.836Z,9.59
2023-02-19T00:09:17.436Z,9.57
2023-02-19T00:11:46.164Z,9.55
2023-02-19T00:14:19.265Z,9.55
2023-02-19T00:16:46.629Z,9.60
2023-02-19T00:19:16.762Z,9.57
2023-02-19T00:21:43.804Z,9.57
2023-02-19T00:24:12.544Z,9.50
2023-02-19T00:26:40.811Z,9.49
2023-02-19T00:29:07.893Z,9.56
2023-02-19T00:31:35.802Z,9.47
2023-02-19T00:34:05.078Z,9.56
2023-02-19T00:36:35.936Z,9.56
2023-02-19T00:39:05.034Z,9.52
2023-02-19T00:41:32.442Z,9.54
2023-02-19T00:44:01.970Z,9.48
2023-02-19T00:46:35.472Z,9.53
2023-02-19T00:49:04.878Z,9.47
2023-02-19T00:51:34.866Z,9.41
2023-02-19T00:54:02.634Z,9.46
2023-02-19T00:56:29.679Z,9.53
2023-02-19T00:58:57.041Z,9.53
2023-02-19T01:01:25.943Z,9.45
2023-02-19T01:03:53.070Z,9.42
2023-02-19T01:06:21.322Z,9.47
2023-02-19T01:08:49.317Z,9.54
2023-02-19T01:11:17.824Z,9.50
2023-02-19T01:13:44.918Z,9.44
2023-02-19T01:16:14.645Z,9.45
2023-02-19T01:18:41.975Z,9.44
2023-02-19T01:21:13.466Z,9.46
2023-02-19T01:23:40.836Z,9.53
2023-02-19T01:26:11.282Z,9.50
2023-02-19T01:28:38.286Z,9.45
2023-02-19T01:31:08.428Z,9.41
2023-02-19T01:33:35.715Z,9.34
2023-02-19T01:36:04.416Z,9.36
2023-02-19T01:38:31.468Z,9.38
2023-02-19T01:41:01.836Z,9.44
2023-02-19T01:43:29.173Z,9.48
2023-02-19T01:45:56.193Z,9.40
2023-02-19T01:48:28.055Z,9.38
2023-02-19T01:51:03.121Z,9.34
2023-02-19T01:53:37.173Z,9.33
2023-02-19T01:56:05.909Z,9.31
2023-02-19T01:58:35.320Z,9.33
2023-02-19T02:01:05.911Z,9.25
2023-02-19T02:03:35.442Z,9.33
2023-02-19T02:06:09.241Z,9.25
2023-02-19T02:08:55.760Z,9.22
2023-02-19T02:11:23.088Z,9.22
2023-02-19T02:13:51.362Z,9.23
2023-02-19T02:16:24.736Z,9.24
2023-02-19T02:18:57.499Z,9.21
2023-02-19T02:21:24.759Z,9.14
2023-02-19T02:24:12.084Z,9.23
2023-02-19T02:27:06.334Z,9.16
2023-02-19T02:29:39.177Z,9.19
2023-02-19T02:32:12.877Z,9.21
2023-02-19T02:34:51.513Z,9.31
2023-02-19T02:37:18.729Z,9.29
2023-02-19T02:39:47.362Z,9.15
2023-02-19T02:42:29.272Z,9.16
2023-02-19T02:45:32.966Z,9.16
2023-02-19T02:48:01.564Z,9.10
2023-02-19T02:51:13.396Z,9.10
2023-02-19T02:54:21.589Z,9.14
2023-02-19T02:56:50.084Z,9.19
2023-02-19T02:59:21.990Z,9.17
2023-02-19T03:02:12.318Z,9.21
2023-02-19T03:05:22.139Z,9.16
2023-02-19T03:08:00.377Z,9.17
2023-02-19T03:10:34.066Z,9.11
2023-02-19T03:13:21.257Z,9.12
2023-02-19T03:16:11.288Z,9.07
2023-02-19T03:19:01.591Z,9.10
2023-02-19T03:21:29.218Z,9.19
2023-02-19T03:24:16.088Z,9.15
2023-02-19T03:26:45.618Z,9.11
2023-02-19T03:29:26.216Z,9.08
2023-02-19T03:32:00.218Z,9.19
2023-02-19T03:34:44.056Z,9.12
2023-02-19T03:37:22.188Z,9.12
2023-02-19T03:39:49.291Z,9.07
2023-02-19T03:42:25.942Z,9.14
2023-02-19T03:45:32.177Z,9.14
2023-02-19T03:47:59.224Z,9.14
2023-02-19T03:50:41.354Z,9.11
2023-02-19T03:53:15.405Z,9.05
2023-02-19T03:55:48.236Z,9.12
2023-02-19T03:58:23.944Z,9.11
2023-02-19T04:01:05.305Z,9.06
2023-02-19T04:03:44.189Z,9.06
2023-02-19T04:06:20.759Z,8.92
2023-02-19T04:08:51.423Z,8.97
2023-02-19T04:11:20.098Z,8.98
2023-02-19T04:13:55.101Z,9.02
2023-02-19T04:16:27.967Z,8.94
2023-02-19T04:18:59.842Z,8.99
2023-02-19T04:21:30.255Z,9.02
2023-02-19T04:24:02.805Z,9.00
2023-02-19T04:26:32.229Z,8.97
2023-02-19T04:28:59.551Z,8.93
2023-02-19T04:31:30.019Z,8.90
2023-02-19T04:33:57.191Z,8.95
2023-02-19T04:36:24.684Z,8.88
2023-02-19T04:38:51.743Z,8.90
2023-02-19T04:41:18.742Z,8.85
2023-02-19T04:43:45.809Z,8.86
2023-02-19T04:46:12.869Z,8.81
2023-02-19T04:48:39.936Z,8.98
2023-02-19T04:51:07.550Z,8.98
2023-02-19T04:53:35.572Z,8.91
2023-02-19T04:56:14.512Z,8.93
2023-02-19T04:58:42.920Z,8.91
2023-02-19T05:01:11.308Z,8.98
2023-02-19T05:03:38.679Z,8.86
2023-02-19T05:06:09.548Z,8.76
2023-02-19T05:08:36.949Z,8.92
2023-02-19T05:11:05.862Z,8.95
2023-02-19T05:13:33.012Z,8.88
2023-02-19T05:16:02.755Z,8.92
2023-02-19T05:18:31.548Z,8.85
2023-02-19T05:21:00.825Z,8.90
2023-02-19T05:23:28.595Z,8.96
2023-02-19T05:25:55.634Z,8.87
2023-02-19T05:28:28.587Z,8.83
2023-02-19T05:30:57.588Z,8.88
2023-02-19T05:33:26.453Z,8.86
2023-02-19T05:35:58.483Z,8.84
2023-02-19T05:38:25.599Z,8.79
2023-02-19T05:40:52.605Z,8.82
2023-02-19T05:43:19.594Z,8.82
2023-02-19T05:45:46.728Z,8.80
2023-02-19T05:48:14.175Z,8.79
2023-02-19T05:50:41.352Z,8.79
2023-02-19T05:53:09.352Z,8.85
2023-02-19T05:55:36.617Z,8.78
2023-02-19T05:58:03.910Z,8.69
2023-02-19T06:00:33.108Z,8.81
2023-02-19T06:03:00.815Z,8.65
2023-02-19T06:05:27.954Z,8.68
2023-02-19T06:07:55.733Z,8.74
2023-02-19T06:10:23.682Z,8.75
2023-02-19T06:12:55.492Z,8.77
2023-02-19T06:15:22.570Z,8.75
2023-02-19T06:17:49.670Z,8.78
2023-02-19T06:20:16.905Z,8.82
2023-02-19T06:22:44.373Z,8.71
2023-02-19T06:25:14.276Z,8.70
2023-02-19T06:27:41.318Z,8.75
2023-02-19T06:30:09.127Z,8.71
2023-02-19T06:32:36.186Z,8.76
2023-02-19T06:35:03.829Z,8.70
2023-02-19T06:37:31.360Z,8.61
2023-02-19T06:39:58.419Z,8.73
2023-02-19T06:42:25.432Z,8.73
2023-02-19T06:44:52.539Z,8.81
2023-02-19T06:47:19.579Z,8.74
2023-02-19T06:49:46.642Z,8.71
2023-02-19T06:52:14.022Z,8.66
2023-02-19T06:54:41.082Z,8.69
2023-02-19T06:57:08.195Z,8.72
2023-02-19T06:59:35.186Z,8.68
2023-02-19T07:02:02.194Z,8.70
2023-02-19T07:04:29.329Z,8.68
2023-02-19T07:06:56.446Z,8.70
2023-02-19T07:09:25.335Z,8.71
2023-02-19T07:11:52.462Z,8.73
2023-02-19T07:14:20.088Z,8.69
2023-02-19T07:16:47.605Z,8.74
2023-02-19T07:19:15.408Z,8.79
2023-02-19T07:21:42.977Z,8.81
2023-02-19T07:24:10.325Z,8.76
2023-02-19T07:26:37.511Z,8.61
2023-02-19T07:29:05.024Z,8.73
2023-02-19T07:31:32.263Z,8.79
2023-02-19T07:33:59.388Z,8.78
2023-02-19T07:36:26.660Z,8.86
2023-02-19T07:38:58.562Z,8.85
2023-02-19T07:41:27.463Z,8.91
2023-02-19T07:43:58.020Z,8.95
2023-02-19T07:46:26.062Z,8.94
2023-02-19T07:48:53.133Z,8.89
2023-02-19T07:51:20.734Z,9.01
2023-02-19T07:53:52.370Z,8.91
2023-02-19T07:56:20.810Z,8.88
2023-02-19T07:58:47.911Z,8.82
2023-02-19T08:01:18.057Z,8.86
2023-02-19T08:03:45.805Z,8.86
2023-02-19T08:06:13.039Z,8.81
2023-02-19T08:08:40.301Z,8.81
2023-02-19T08:11:26.322Z,8.85
2023-02-19T08:13:54.486Z,8.80
2023-02-19T08:16:40.775Z,8.91
2023-02-19T08:19:09.861Z,8.89
2023-02-19T08:21:36.944Z,8.81
2023-02-19T08:24:04.249Z,8.77
2023-02-19T08:26:33.055Z,8.77
2023-02-19T08:29:00.285Z,8.74
2023-02-19T08:31:27.574Z,8.70
2023-02-19T08:33:55.408Z,8.66
2023-02-19T08:36:22.454Z,8.74
2023-02-19T08:38:49.682Z,8.71
2023-02-19T08:41:16.752Z,8.67
2023-02-19T08:43:44.232Z,8.65
2023-02-19T08:46:12.961Z,8.71
2023-02-19T08:48:40.587Z,8.70
2023-02-19T08:51:10.928Z,8.69
2023-02-19T08:53:40.045Z,8.88
2023-02-19T08:56:11.605Z,8.81
2023-02-19T08:58:39.309Z,8.76
2023-02-19T09:01:11.985Z,8.66
2023-02-19T09:03:39.458Z,8.79
2023-02-19T09:06:06.871Z,8.85
2023-02-19T09:08:34.147Z,8.86
2023-02-19T09:11:03.481Z,8.84
2023-02-19T09:13:30.972Z,8.86
2023-02-19T09:15:58.149Z,8.89
2023-02-19T09:18:26.421Z,8.83
2023-02-19T09:20:56.032Z,8.77
2023-02-19T09:23:23.089Z,8.76
2023-02-19T09:25:57.001Z,8.70
2023-02-19T09:28:24.443Z,8.69
2023-02-19T09:30:51.563Z,8.73
2023-02-19T09:33:18.696Z,8.79
2023-02-19T09:35:45.793Z,8.85
2023-02-19T09:38:12.899Z,8.80
2023-02-19T09:40:40.218Z,8.76
2023-02-19T09:43:17.655Z,8.77
2023-02-19T09:45:44.780Z,8.77
2023-02-19T09:48:12.862Z,8.68
2023-02-19T09:50:45.662Z,8.50
2023-02-19T09:53:20.206Z,8.46
2023-02-19T09:55:47.640Z,8.37
2023-02-19T09:58:25.703Z,8.39
2023-02-19T10:00:55.490Z,8.32
2023-02-19T10:03:34.210Z,8.34
2023-02-19T10:06:06.182Z,8.32
2023-02-19T10:08:35.509Z,8.40
2023-02-19T10:11:04.891Z,8.33
2023-02-19T10:13:41.440Z,8.43
2023-02-19T10:16:16.015Z,8.46
2023-02-19T10:18:45.287Z,8.42
2023-02-19T10:21:22.733Z,8.41
2023-02-19T10:24:15.415Z,8.42
2023-02-19T10:26:44.584Z,8.47
2023-02-19T10:29:11.642Z,8.50
2023-02-19T10:31:38.776Z,8.50
2023-02-19T10:34:18.090Z,8.51
2023-02-19T10:36:49.020Z,8.52
2023-02-19T10:39:44.888Z,8.58
2023-02-19T10:42:20.559Z,8.64
2023-02-19T10:44:54.375Z,8.60
2023-02-19T10:47:24.335Z,8.61
2023-02-19T10:49:52.849Z,8.45
2023-02-19T10:52:29.527Z,8.37
2023-02-19T10:55:15.356Z,8.34
2023-02-19T10:57:42.811Z,8.37
2023-02-19T11:00:15.693Z,8.32
2023-02-19T11:02:44.406Z,8.36
2023-02-19T11:05:17.108Z,8.40
2023-02-19T11:07:55.242Z,8.48
2023-02-19T11:10:33.192Z,8.52
2023-02-19T11:13:04.257Z,8.31
2023-02-19T11:15:33.944Z,8.20
2023-02-19T11:18:13.022Z,8.16
2023-02-19T11:21:22.513Z,8.24
2023-02-19T11:23:49.606Z,8.29
2023-02-19T11:26:22.843Z,8.29
2023-02-19T11:29:00.900Z,8.19
2023-02-19T11:31:32.864Z,8.13
2023-02-19T11:34:03.540Z,8.07
2023-02-19T11:36:35.478Z,8.07
2023-02-19T11:39:17.455Z,7.98
2023-02-19T11:42:12.526Z,7.88
2023-02-19T11:44:49.433Z,7.92
2023-02-19T11:47:43.587Z,7.80
2023-02-19T11:50:30.171Z,7.79
2023-02-19T11:53:29.319Z,7.70
2023-02-19T11:55:59.224Z,7.65
2023-02-19T11:58:54.471Z,7.66
2023-02-19T12:01:46.197Z,7.63
2023-02-19T12:04:28.653Z,7.61
2023-02-19T12:07:01.246Z,7.50
2023-02-19T12:09:36.880Z,7.43
2023-02-19T12:12:40.404Z,7.40
2023-02-19T12:15:40.934Z,7.42
2023-02-19T12:18:23.120Z,7.47
2023-02-19T12:21:06.182Z,7.45
2023-02-19T12:24:17.398Z,7.51
2023-02-19T12:26:49.949Z,7.39
2023-02-19T12:29:25.647Z,7.35
2023-02-19T12:32:17.015Z,7.47
2023-02-19T12:35:05.189Z,7.53
2023-02-19T12:37:52.830Z,7.49
2023-02-19T12:40:41.200Z,7.45
2023-02-19T12:43:16.568Z,7.38
2023-02-19T12:46:04.867Z,7.43
2023-02-19T12:48:53.331Z,7.53
2023-02-19T12:51:20.366Z,7.53
2023-02-19T12:53:54.512Z,7.52
2023-02-19T12:56:25.683Z,7.50
2023-02-19T12:59:02.321Z,7.57
2023-02-19T13:01:35.124Z,7.62
2023-02-19T13:04:14.131Z,7.62
2023-02-19T13:06:46.665Z,7.65
2023-02-19T13:09:36.499Z,7.58
2023-02-19T13:12:11.759Z,7.50
2023-02-19T13:15:01.023Z,7.38
2023-02-19T13:17:50.133Z,7.38
2023-02-19T13:20:41.430Z,7.57
2023-02-19T13:23:35.982Z,7.63
2023-02-19T13:26:30.612Z,7.60
2023-02-19T13:29:18.293Z,7.53
2023-02-19T13:32:00.101Z,7.55
2023-02-19T13:34:44.552Z,7.54
2023-02-19T13:37:12.696Z,7.56
2023-02-19T13:39:49.956Z,7.71
2023-02-19T13:42:27.142Z,7.72
2023-02-19T13:44:57.991Z,7.72
2023-02-19T13:47:49.021Z,7.70
2023-02-19T13:50:25.655Z,7.83
2023-02-19T13:52:55.426Z,7.93
2023-02-19T13:55:47.229Z,7.97
2023-02-19T13:58:32.794Z,7.87
2023-02-19T14:01:08.037Z,7.82
2023-02-19T14:03:37.729Z,7.89
2023-02-19T14:06:07.386Z,7.73
2023-02-19T14:08:52.481Z,7.73
2023-02-19T14:11:41.955Z,7.81
2023-02-19T14:14:25.577Z,7.93
2023-02-19T14:17:01.129Z,8.12
2023-02-19T14:19:52.424Z,8.10
2023-02-19T14:22:47.214Z,7.73
2023-02-19T14:25:31.212Z,7.85
2023-02-19T14:28:03.549Z,7.79
2023-02-19T14:30:32.988Z,7.81
2023-02-19T14:33:10.671Z,7.84
2023-02-19T14:35:42.878Z,7.77
2023-02-19T14:38:27.474Z,7.86
2023-02-19T14:40:55.845Z,7.89
2023-02-19T14:43:25.866Z,7.98
2023-02-19T14:46:08.113Z,8.04
2023-02-19T14:48:43.185Z,8.06
2023-02-19T14:51:21.375Z,8.02
2023-02-19T14:53:49.653Z,7.87
2023-02-19T14:56:28.365Z,7.91
2023-02-19T14:59:29.157Z,7.85
2023-02-19T15:02:02.676Z,8.02
2023-02-19T15:04:35.056Z,8.13
2023-02-19T15:07:06.281Z,8.11
2023-02-19T15:09:39.399Z,8.07
2023-02-19T15:12:07.259Z,8.13
2023-02-19T15:14:34.945Z,8.05
2023-02-19T15:17:05.485Z,7.94
2023-02-19T15:19:36.200Z,7.82
2023-02-19T15:22:03.475Z,7.90
2023-02-19T15:24:30.751Z,7.91
2023-02-19T15:26:57.967Z,7.73
2023-02-19T15:29:27.417Z,7.78
2023-02-19T15:32:00.086Z,7.73
2023-02-19T15:34:29.938Z,7.76
2023-02-19T15:37:03.484Z,7.80
2023-02-19T15:39:46.557Z,7.85
2023-02-19T15:42:34.689Z,7.74
2023-02-19T15:45:42.111Z,7.78
2023-02-19T15:48:18.261Z,7.72
2023-02-19T15:50:50.480Z,7.69
2023-02-19T15:53:23.220Z,7.62
2023-02-19T15:55:55.973Z,7.57
2023-02-19T15:58:35.367Z,7.48
2023-02-19T16:01:08.176Z,7.41
2023-02-19T16:03:35.733Z,7.36
2023-02-19T16:06:16.004Z,7.36
2023-02-19T16:08:45.640Z,7.25
2023-02-19T16:11:27.419Z,7.23
2023-02-19T16:14:22.080Z,7.33
2023-02-19T16:16:52.535Z,7.37
2023-02-19T16:19:27.535Z,7.26
2023-02-19T16:21:57.097Z,7.17
2023-02-19T16:24:33.602Z,7.25
2023-02-19T16:27:01.279Z,7.21
2023-02-19T16:29:32.831Z,7.23
2023-02-19T16:32:02.943Z,7.31
2023-02-19T16:34:47.219Z,7.14
2023-02-19T16:37:37.836Z,7.24
2023-02-19T16:40:07.550Z,7.22
2023-02-19T16:42:49.626Z,7.34
2023-02-19T16:45:17.749Z,7.22
2023-02-19T16:47:48.415Z,7.15
2023-02-19T16:50:18.571Z,7.09
2023-02-19T16:52:51.670Z,7.20
2023-02-19T16:55:18.792Z,7.05
2023-02-19T16:57:45.900Z,7.01
2023-02-19T17:00:20.972Z,7.06
2023-02-19T17:02:51.555Z,7.05
2023-02-19T17:05:21.328Z,7.11
2023-02-19T17:07:48.879Z,7.08
2023-02-19T17:10:20.589Z,6.99
2023-02-19T17:12:47.705Z,7.04
2023-02-19T17:15:14.730Z,7.13
2023-02-19T17:17:41.817Z,7.04
2023-02-19T17:20:17.645Z,6.96
2023-02-19T17:22:44.748Z,6.98
2023-02-19T17:25:11.856Z,7.02
2023-02-19T17:27:38.909Z,7.03
2023-02-19T17:30:28.192Z,6.94
2023-02-19T17:32:58.249Z,6.90
2023-02-19T17:35:26.431Z,6.91
2023-02-19T17:37:53.623Z,6.96
2023-02-19T17:40:33.566Z,6.94
2023-02-19T17:43:01.875Z,6.93
2023-02-19T17:45:28.937Z,6.99
2023-02-19T17:47:56.018Z,6.95
2023-02-19T17:50:27.080Z,7.01
2023-02-19T17:52:54.232Z,7.00
2023-02-19T17:55:21.373Z,6.98
2023-02-19T17:57:49.853Z,7.01
2023-02-19T18:00:28.639Z,7.03
2023-02-19T18:02:56.218Z,7.03
2023-02-19T18:05:26.295Z,6.99
2023-02-19T18:07:56.627Z,7.05
2023-02-19T18:10:24.654Z,7.06
2023-02-19T18:12:52.070Z,7.05
2023-02-19T18:15:22.531Z,7.02
2023-02-19T18:17:49.915Z,7.02
2023-02-19T18:20:25.737Z,7.01
2023-02-19T18:22:53.269Z,7.05
2023-02-19T18:25:20.882Z,7.10
2023-02-19T18:27:48.624Z,7.09
2023-02-19T18:30:18.987Z,7.15
2023-02-19T18:32:49.657Z,6.97
2023-02-19T18:35:18.915Z,6.92
2023-02-19T18:37:49.790Z,6.95
2023-02-19T18:40:16.990Z,6.83
2023-02-19T18:42:46.228Z,6.80
2023-02-19T18:45:13.352Z,6.82
2023-02-19T18:47:40.464Z,6.85
2023-02-19T18:50:09.687Z,6.80
2023-02-19T18:52:36.722Z,6.88
2023-02-19T18:55:03.948Z,6.84
2023-02-19T18:57:31.109Z,6.73
2023-02-19T18:59:58.250Z,6.67
2023-02-19T19:02:27.141Z,6.62
2023-02-19T19:04:57.069Z,6.55
2023-02-19T19:07:26.190Z,6.48
2023-02-19T19:09:53.437Z,6.47
2023-02-19T19:12:20.766Z,6.41
2023-02-19T19:14:47.801Z,6.40
2023-02-19T19:17:15.143Z,6.34
2023-02-19T19:19:45.029Z,6.35
2023-02-19T19:22:12.205Z,6.31
2023-02-19T19:24:39.253Z,6.29
2023-02-19T19:27:06.272Z,6.23
2023-02-19T19:29:33.444Z,6.18
2023-02-19T19:32:00.503Z,6.14
2023-02-19T19:34:27.626Z,6.10
2023-02-19T19:36:55.013Z,6.08
2023-02-19T19:39:22.188Z,6.14
2023-02-19T19:41:56.301Z,6.14
2023-02-19T19:44:23.743Z,6.19
2023-02-19T19:46:50.904Z,6.13
2023-02-19T19:49:21.364Z,6.11
2023-02-19T19:51:48.785Z,6.11
2023-02-19T19:54:17.410Z,6.11
2023-02-19T19:56:47.344Z,6.11
2023-02-19T19:59:16.767Z,6.12
2023-02-19T20:01:57.127Z,6.04
2023-02-19T20:04:26.110Z,6.07
2023-02-19T20:06:53.197Z,5.98
2023-02-19T20:09:20.506Z,5.89
2023-02-19T20:11:49.745Z,5.97
2023-02-19T20:14:18.909Z,5.97
2023-02-19T20:16:47.899Z,5.91
2023-02-19T20:19:15.700Z,5.88
2023-02-19T20:21:52.940Z,5.82
2023-02-19T20:24:25.938Z,5.73
2023-02-19T20:26:58.541Z,5.59
2023-02-19T20:29:31.085Z,5.63
2023-02-19T20:32:00.012Z,5.55
2023-02-19T20:34:27.367Z,5.49
2023-02-19T20:36:55.507Z,5.49
2023-02-19T20:39:22.887Z,5.46
2023-02-19T20:41:52.194Z,5.41
2023-02-19T20:44:19.300Z,5.38
2023-02-19T20:46:48.873Z,5.41
2023-02-19T20:49:17.704Z,5.38
2023-02-19T20:51:50.697Z,5.37
2023-02-19T20:54:19.986Z,5.35
2023-02-19T20:56:48.795Z,5.26
2023-02-19T20:59:17.393Z,5.31
2023-02-19T21:01:44.559Z,5.26
2023-02-19T21:04:12.278Z,5.27
2023-02-19T21:06:39.745Z,5.27
2023-02-19T21:09:06.860Z,5.32
2023-02-19T21:11:34.176Z,5.31
2023-02-19T21:14:01.298Z,5.21
2023-02-19T21:16:30.671Z,5.32
2023-02-19T21:18:58.721Z,5.32
2023-02-19T21:21:26.548Z,5.32
2023-02-19T21:23:55.882Z,5.24
2023-02-19T21:26:24.704Z,5.30
2023-02-19T21:28:52.426Z,5.27
2023-02-19T21:31:20.732Z,5.19
2023-02-19T21:33:47.779Z,5.14
2023-02-19T21:36:15.121Z,5.08
2023-02-19T21:38:42.213Z,5.07
2023-02-19T21:41:09.245Z,5.04
2023-02-19T21:43:36.287Z,5.10
2023-02-19T21:46:03.599Z,4.98
2023-02-19T21:48:30.708Z,5.11
2023-02-19T21:50:57.765Z,5.07
2023-02-19T21:53:25.892Z,5.11
2023-02-19T21:55:58.765Z,5.03
2023-02-19T21:58:26.481Z,5.04
2023-02-19T22:00:54.792Z,5.06
2023-02-19T22:03:21.861Z,5.03
2023-02-19T22:05:48.938Z,5.11
2023-02-19T22:08:17.370Z,5.10
2023-02-19T22:10:44.578Z,5.06
2023-02-19T22:13:11.748Z,5.06
2023-02-19T22:15:38.912Z,5.05
2023-02-19T22:18:06.026Z,5.10
2023-02-19T22:20:34.570Z,5.14
2023-02-19T22:23:01.699Z,5.16
2023-02-19T22:25:28.708Z,5.19
2023-02-19T22:27:56.162Z,5.27
2023-02-19T22:30:23.228Z,5.29
2023-02-19T22:32:50.238Z,5.33
2023-02-19T22:35:17.310Z,5.35
2023-02-19T22:37:44.426Z,5.38
2023-02-19T22:40:11.960Z,5.34
2023-02-19T22:42:39.139Z,5.39
2023-02-19T22:45:06.689Z,5.37
2023-02-19T22:47:33.669Z,5.37
2023-02-19T22:50:00.742Z,5.34
2023-02-19T22:52:28.182Z,5.36
2023-02-19T22:54:56.304Z,5.41
2023-02-19T22:57:23.333Z,5.46
2023-02-19T22:59:50.541Z,5.48
2023-02-19T23:02:17.880Z,5.55
2023-02-19T23:04:44.895Z,5.59
2023-02-19T23:07:12.017Z,5.61
2023-02-19T23:09:39.257Z,5.63
2023-02-19T23:12:09.212Z,5.59
2023-02-19T23:14:36.663Z,5.69
2023-02-19T23:17:03.715Z,5.74
2023-02-19T23:19:31.091Z,5.70
2023-02-19T23:21:58.334Z,5.71
2023-02-19T23:24:26.272Z,5.71
2023-02-19T23:26:53.731Z,5.76
2023-02-19T23:29:25.444Z,5.78
2023-02-19T23:31:53.845Z,5.84
2023-02-19T23:34:21.054Z,5.90
2023-02-19T23:36:49.955Z,5.87
2023-02-19T23:39:19.537Z,5.88
2023-02-19T23:41:48.526Z,5.91
2023-02-19T23:44:16.907Z,5.85
2023-02-19T23:46:44.286Z,5.83
2023-02-19T23:49:11.528Z,5.85
2023-02-19T23:51:38.639Z,5.85
2023-02-19T23:54:05.906Z,5.91
2023-02-19T23:56:32.943Z,5.94
2023-02-19T23:59:00.221Z,5.96
